Time;durP1;ratioP1;P1;durP2;ratioP2;P2;SDS_P1;SDS_P2;PMS_P1;PMS_P2;Temp;Humidity;BMP_temperature;BMP_pressure;BME280_temperature;BME280_humidity;BME280_pressure;Samples;Min_cycle;Max_cycle;Signal;HPM_P1;HPM_P2
2020/12/16 00:00:09;;;;;;;16.53;9.77;;;3.10;99.90;;;;;;4125264;28;20685;-46
2020/12/16 00:02:10;;;;;;;14.73;9.10;;;3.10;99.90;;;;;;4125335;28;20319;-44
2020/12/16 00:04:12;;;;;;;16.43;10.20;;;3.10;99.90;;;;;;4124917;28;20280;-43
2020/12/16 00:06:15;;;;;;;16.97;10.03;;;3.10;99.90;;;;;;4124988;28;21055;-40
2020/12/16 00:08:16;;;;;;;15.13;9.50;;;3.20;99.90;;;;;;4125389;28;20257;-42
2020/12/16 00:10:17;;;;;;;13.13;8.67;;;3.20;99.90;;;;;;4125020;28;20323;-40
2020/12/16 00:12:18;;;;;;;17.17;9.67;;;3.20;99.90;;;;;;4137412;28;21302;-43
2020/12/16 00:14:19;;;;;;;14.87;8.73;;;3.20;99.90;;;;;;4141050;28;20341;-39
2020/12/16 00:16:20;;;;;;;15.00;9.00;;;3.20;99.90;;;;;;4140438;28;20267;-41
2020/12/16 00:18:21;;;;;;;15.70;8.87;;;3.20;99.90;;;;;;4140737;28;20683;-43
2020/12/16 00:20:22;;;;;;;15.10;8.73;;;3.20;99.90;;;;;;4140457;28;20357;-43
2020/12/16 00:22:23;;;;;;;13.90;8.63;;;3.20;99.90;;;;;;4141613;28;20353;-46
2020/12/16 00:24:26;;;;;;;16.70;9.67;;;3.20;99.90;;;;;;4140391;28;20276;-40
2020/12/16 00:26:27;;;;;;;17.23;9.10;;;3.20;99.90;;;;;;4140800;28;20271;-42
2020/12/16 00:28:28;;;;;;;15.87;9.70;;;3.20;99.90;;;;;;4140341;28;20287;-39
2020/12/16 00:30:29;;;;;;;17.93;9.47;;;3.20;99.90;;;;;;4140475;28;20314;-43
2020/12/16 00:32:30;;;;;;;16.80;9.77;;;3.20;99.90;;;;;;4140007;28;20714;-44
2020/12/16 00:34:32;;;;;;;15.57;9.63;;;3.20;99.90;;;;;;4140091;28;20260;-42
2020/12/16 00:36:37;;;;;;;16.07;9.07;;;3.20;99.90;;;;;;4140535;28;20794;-42
2020/12/16 00:38:38;;;;;;;14.90;8.63;;;3.20;99.90;;;;;;4140599;28;20671;-42
2020/12/16 00:40:40;;;;;;;17.27;9.77;;;3.20;99.90;;;;;;4139931;28;20279;-39
2020/12/16 00:42:50;;;;;;;18.47;10.17;;;3.20;99.90;;;;;;4140266;28;20271;-43
2020/12/16 00:44:51;;;;;;;15.97;8.97;;;3.20;99.90;;;;;;4140658;28;20276;-43
2020/12/16 00:46:52;;;;;;;15.43;9.17;;;3.10;99.90;;;;;;4139728;28;20310;-41
2020/12/16 00:48:53;;;;;;;15.97;9.30;;;3.20;99.90;;;;;;4140624;28;20992;-51
2020/12/16 00:50:54;;;;;;;17.63;10.13;;;3.10;99.90;;;;;;4140070;28;20321;-41
2020/12/16 00:52:55;;;;;;;16.07;9.43;;;3.10;99.90;;;;;;4140194;28;20377;-43
2020/12/16 00:54:56;;;;;;;15.63;9.80;;;3.10;99.90;;;;;;4139505;28;20909;-43
2020/12/16 00:56:57;;;;;;;18.23;10.53;;;3.10;99.90;;;;;;4140633;28;20287;-46
2020/12/16 00:58:58;;;;;;;15.83;10.40;;;3.10;99.90;;;;;;4139965;28;21156;-45
2020/12/16 01:01:00;;;;;;;17.63;10.67;;;3.10;99.90;;;;;;4140612;28;20326;-44
2020/12/16 01:03:01;;;;;;;14.83;9.37;;;3.10;99.90;;;;;;4140205;28;20287;-39
2020/12/16 01:05:02;;;;;;;14.70;9.47;;;3.10;99.90;;;;;;4140179;28;20297;-40
2020/12/16 01:07:03;;;;;;;15.90;9.60;;;3.10;99.90;;;;;;4140319;28;20766;-42
2020/12/16 01:09:08;;;;;;;16.23;10.37;;;3.20;99.90;;;;;;4139931;28;20279;-42
2020/12/16 01:11:09;;;;;;;13.53;8.57;;;3.20;99.90;;;;;;4139911;28;20909;-41
2020/12/16 01:13:10;;;;;;;16.40;9.60;;;3.20;99.90;;;;;;4139383;28;20287;-42
2020/12/16 01:15:18;;;;;;;14.37;9.83;;;3.20;99.90;;;;;;4140140;28;20743;-45
2020/12/16 01:17:19;;;;;;;16.10;9.83;;;3.20;99.90;;;;;;4139478;28;20275;-39
2020/12/16 01:19:21;;;;;;;17.03;10.23;;;3.20;99.90;;;;;;4140622;28;20276;-41
2020/12/16 01:21:23;;;;;;;17.07;9.70;;;3.20;99.90;;;;;;4139318;28;20686;-42
2020/12/16 01:23:25;;;;;;;18.07;10.27;;;3.20;99.90;;;;;;4139778;28;20279;-45
2020/12/16 01:25:26;;;;;;;15.13;9.47;;;3.20;99.90;;;;;;4139418;28;20263;-43
2020/12/16 01:27:27;;;;;;;13.93;9.40;;;3.20;99.90;;;;;;4140380;28;20287;-42
2020/12/16 01:29:28;;;;;;;17.60;10.10;;;3.20;99.90;;;;;;4139477;28;20264;-45
2020/12/16 01:31:36;;;;;;;14.57;9.47;;;3.30;99.90;;;;;;4139735;28;20283;-39
2020/12/16 01:33:38;;;;;;;14.87;9.67;;;3.30;99.90;;;;;;4139289;28;20299;-43
2020/12/16 01:35:39;;;;;;;12.83;8.37;;;3.30;99.90;;;;;;4139646;28;20271;-40
2020/12/16 01:37:40;;;;;;;11.70;8.07;;;3.20;99.90;;;;;;4139466;28;20276;-43
2020/12/16 01:39:41;;;;;;;11.80;8.10;;;3.20;99.90;;;;;;4138586;28;21140;-45
2020/12/16 01:41:48;;;;;;;14.77;8.50;;;3.20;99.90;;;;;;4139733;28;20267;-46
2020/12/16 01:43:49;;;;;;;13.83;8.33;;;3.20;99.90;;;;;;4139378;28;20271;-43
2020/12/16 01:45:50;;;;;;;13.17;8.60;;;3.10;99.90;;;;;;4139886;28;20798;-46
2020/12/16 01:47:52;;;;;;;13.53;7.97;;;3.10;99.90;;;;;;4139339;28;20309;-46
2020/12/16 01:49:53;;;;;;;14.63;7.53;;;3.10;99.90;;;;;;4139689;28;20325;-45
2020/12/16 01:51:58;;;;;;;11.23;7.30;;;3.10;99.90;;;;;;4128081;28;20300;-40
2020/12/16 01:54:00;;;;;;;11.03;7.03;;;3.10;99.90;;;;;;4123703;28;20350;-44
2020/12/16 01:56:01;;;;;;;12.53;7.20;;;3.10;99.90;;;;;;4122850;28;20276;-41
2020/12/16 01:58:09;;;;;;;11.77;7.57;;;3.10;99.90;;;;;;4124187;28;20708;-44
2020/12/16 02:00:11;;;;;;;13.77;7.13;;;3.10;99.90;;;;;;4123048;28;20784;-42
2020/12/16 02:02:16;;;;;;;11.87;7.60;;;3.10;99.90;;;;;;4123760;28;20269;-40
2020/12/16 02:04:22;;;;;;;11.63;7.43;;;3.10;99.90;;;;;;4123461;28;20331;-40
2020/12/16 02:06:25;;;;;;;11.77;7.50;;;3.10;99.90;;;;;;4138257;28;20275;-48
2020/12/16 02:08:28;;;;;;;15.00;8.20;;;3.10;99.90;;;;;;4141641;28;20349;-40
2020/12/16 02:10:29;;;;;;;15.37;8.13;;;3.10;99.90;;;;;;4139148;28;20267;-44
2020/12/16 02:12:35;;;;;;;12.73;7.90;;;3.10;99.90;;;;;;4122931;28;20889;-41
2020/12/16 02:14:36;;;;;;;12.57;7.67;;;3.10;99.90;;;;;;4123477;28;20672;-45
2020/12/16 02:16:38;;;;;;;12.10;7.33;;;3.10;99.90;;;;;;4124474;28;20744;-41
2020/12/16 02:18:46;;;;;;;10.90;6.80;;;3.10;99.90;;;;;;4139638;28;20597;-41
2020/12/16 02:20:48;;;;;;;14.10;8.33;;;3.10;99.90;;;;;;4139466;28;20667;-43
2020/12/16 02:22:49;;;;;;;12.50;7.70;;;3.10;99.90;;;;;;4139552;28;20302;-42
2020/12/16 02:24:50;;;;;;;12.10;7.67;;;3.10;99.90;;;;;;4139286;28;20263;-40
2020/12/16 02:26:51;;;;;;;11.53;8.00;;;3.10;99.90;;;;;;4137165;28;20401;-42
2020/12/16 02:28:53;;;;;;;15.60;7.73;;;3.10;99.90;;;;;;4139250;28;20345;-46
2020/12/16 02:30:54;;;;;;;12.87;8.07;;;3.10;99.90;;;;;;4138617;28;20271;-43
2020/12/16 02:32:55;;;;;;;14.17;7.63;;;3.10;99.90;;;;;;4138819;28;20337;-40
2020/12/16 02:34:57;;;;;;;12.20;8.03;;;3.10;99.90;;;;;;4138771;28;20342;-40
2020/12/16 02:36:58;;;;;;;16.53;7.70;;;3.10;99.90;;;;;;4140060;28;20318;-40
2020/12/16 02:38:59;;;;;;;12.53;8.20;;;3.10;99.90;;;;;;4139063;28;20337;-40
2020/12/16 02:41:00;;;;;;;14.03;8.23;;;3.10;99.90;;;;;;4139593;28;20649;-47
2020/12/16 02:43:01;;;;;;;12.27;6.67;;;3.10;99.90;;;;;;4138973;28;20279;-39
2020/12/16 02:45:03;;;;;;;11.80;7.60;;;3.10;99.90;;;;;;4139023;28;21299;-41
2020/12/16 02:47:05;;;;;;;11.50;7.07;;;3.10;99.90;;;;;;4138917;28;20275;-41
2020/12/16 02:49:06;;;;;;;13.53;7.70;;;3.10;99.90;;;;;;4139155;28;20279;-44
2020/12/16 02:51:07;;;;;;;12.27;7.43;;;3.00;99.90;;;;;;4140929;28;20337;-39
2020/12/16 02:53:08;;;;;;;11.50;6.80;;;3.10;99.90;;;;;;4142267;28;20279;-44
2020/12/16 02:55:09;;;;;;;9.90;6.57;;;3.00;99.90;;;;;;4141827;28;20744;-45
2020/12/16 02:57:11;;;;;;;12.20;7.20;;;3.00;99.90;;;;;;4141420;28;20659;-47
2020/12/16 02:59:12;;;;;;;11.40;7.03;;;3.00;99.90;;;;;;4142403;28;20279;-40
2020/12/16 03:01:13;;;;;;;10.77;6.87;;;3.00;99.90;;;;;;4142289;28;20337;-40
2020/12/16 03:03:14;;;;;;;11.10;7.27;;;3.00;99.90;;;;;;4142637;28;20275;-42
2020/12/16 03:05:15;;;;;;;10.70;8.50;;;3.00;99.90;;;;;;4141558;28;20317;-45
2020/12/16 03:07:16;;;;;;;10.47;6.80;;;3.10;99.90;;;;;;4136298;28;20275;-41
2020/12/16 03:09:20;;;;;;;9.83;6.73;;;3.10;99.90;;;;;;4125243;28;20284;-40
2020/12/16 03:11:21;;;;;;;11.27;6.03;;;3.10;99.90;;;;;;4126166;28;20316;-40
2020/12/16 03:13:22;;;;;;;10.20;6.77;;;3.10;99.90;;;;;;4125669;28;20300;-39
2020/12/16 03:15:23;;;;;;;11.90;7.50;;;3.10;99.90;;;;;;4126440;28;20327;-43
2020/12/16 03:17:24;;;;;;;9.57;6.27;;;3.10;99.90;;;;;;4125549;28;20764;-45
2020/12/16 03:19:26;;;;;;;12.80;7.17;;;3.10;99.90;;;;;;4125635;28;20322;-41
2020/12/16 03:21:27;;;;;;;11.10;6.77;;;3.10;99.90;;;;;;4126921;28;20326;-40
2020/12/16 03:23:28;;;;;;;10.77;6.83;;;3.10;99.90;;;;;;4125283;28;20740;-40
2020/12/16 03:25:29;;;;;;;11.33;8.00;;;3.10;99.90;;;;;;4125515;28;20366;-41
2020/12/16 03:27:30;;;;;;;12.27;7.90;;;3.10;99.90;;;;;;4125441;28;20850;-47
2020/12/16 03:29:31;;;;;;;12.33;7.50;;;3.20;99.90;;;;;;4126039;28;20276;-40
2020/12/16 03:31:33;;;;;;;11.50;7.47;;;3.10;99.90;;;;;;4125230;28;20338;-41
2020/12/16 03:33:34;;;;;;;12.53;7.80;;;3.10;99.90;;;;;;4125478;28;20296;-44
2020/12/16 03:35:35;;;;;;;11.47;7.10;;;3.10;99.90;;;;;;4125049;28;20319;-40
2020/12/16 03:37:36;;;;;;;12.30;8.17;;;3.10;99.90;;;;;;4126287;28;21139;-38
2020/12/16 03:39:38;;;;;;;12.03;7.53;;;3.10;99.90;;;;;;4124843;28;20330;-42
2020/12/16 03:41:39;;;;;;;13.77;8.17;;;3.10;99.90;;;;;;4126244;28;20768;-49
2020/12/16 03:43:42;;;;;;;13.93;8.20;;;3.10;99.90;;;;;;4124747;28;20334;-42
2020/12/16 03:45:43;;;;;;;12.63;8.23;;;3.00;99.90;;;;;;4125452;28;20264;-45
2020/12/16 03:47:44;;;;;;;14.97;7.67;;;3.10;99.90;;;;;;4124800;28;20330;-46
2020/12/16 03:49:46;;;;;;;12.20;7.33;;;3.10;99.90;;;;;;4125110;28;20590;-44
2020/12/16 03:51:55;;;;;;;11.37;7.23;;;3.10;99.90;;;;;;4125294;28;20413;-48
2020/12/16 03:53:57;;;;;;;11.80;7.50;;;3.10;99.90;;;;;;4124662;28;20676;-43
2020/12/16 03:55:58;;;;;;;11.40;7.07;;;3.20;99.90;;;;;;4125221;28;20272;-42
2020/12/16 03:57:59;;;;;;;14.47;8.47;;;3.20;99.90;;;;;;4125458;28;20668;-42
2020/12/16 04:00:00;;;;;;;12.47;7.67;;;3.20;99.90;;;;;;4125373;28;20280;-46
2020/12/16 04:02:01;;;;;;;12.43;8.10;;;3.20;99.90;;;;;;4126058;28;20284;-41
2020/12/16 04:04:03;;;;;;;10.90;7.13;;;3.30;99.90;;;;;;4124850;28;20327;-41
2020/12/16 04:06:10;;;;;;;9.93;7.13;;;3.30;99.90;;;;;;4124426;28;20298;-47
2020/12/16 04:08:11;;;;;;;11.80;7.30;;;3.30;99.90;;;;;;4125515;28;20280;-40
2020/12/16 04:10:12;;;;;;;11.40;7.27;;;3.30;99.90;;;;;;4124612;28;20276;-46
2020/12/16 04:12:13;;;;;;;11.13;7.10;;;3.40;99.90;;;;;;4125738;28;20272;-40
2020/12/16 04:14:14;;;;;;;12.50;7.93;;;3.40;99.90;;;;;;4123689;28;20531;-41
2020/12/16 04:16:19;;;;;;;12.87;8.10;;;3.40;99.90;;;;;;4124730;28;20268;-40
2020/12/16 04:18:20;;;;;;;12.40;8.00;;;3.40;99.90;;;;;;4124660;28;20832;-40
2020/12/16 04:20:21;;;;;;;12.33;8.17;;;3.40;99.90;;;;;;4125655;28;20310;-42
2020/12/16 04:22:22;;;;;;;15.40;8.60;;;3.40;99.90;;;;;;4125410;28;20264;-40
2020/12/16 04:24:23;;;;;;;13.47;8.17;;;3.40;99.90;;;;;;4124454;28;20810;-45
2020/12/16 04:26:25;;;;;;;10.87;6.83;;;3.40;99.90;;;;;;4139359;28;20272;-45
2020/12/16 04:28:26;;;;;;;14.00;7.73;;;3.40;99.90;;;;;;4124701;28;20279;-42
2020/12/16 04:30:28;;;;;;;13.43;8.47;;;3.30;99.90;;;;;;4124536;28;20343;-41
2020/12/16 04:32:29;;;;;;;13.47;7.97;;;3.30;99.90;;;;;;4124487;28;20318;-45
2020/12/16 04:34:30;;;;;;;12.97;8.83;;;3.30;99.90;;;;;;4124452;28;20295;-39
2020/12/16 04:36:31;;;;;;;14.87;8.80;;;3.20;99.90;;;;;;4124430;28;20763;-47
2020/12/16 04:38:32;;;;;;;13.23;8.70;;;3.20;99.90;;;;;;4124688;28;20272;-41
2020/12/16 04:40:33;;;;;;;11.33;7.20;;;3.20;99.90;;;;;;4127988;28;20849;-44
2020/12/16 04:42:34;;;;;;;14.47;7.77;;;3.20;99.90;;;;;;4140463;28;20322;-41
2020/12/16 04:44:36;;;;;;;13.57;8.23;;;3.20;99.90;;;;;;4139847;28;20687;-42
2020/12/16 04:46:39;;;;;;;14.67;8.57;;;3.20;99.90;;;;;;4141009;28;20267;-47
2020/12/16 04:48:44;;;;;;;13.57;8.40;;;3.20;99.90;;;;;;4139243;28;20582;-41
2020/12/16 04:50:46;;;;;;;14.00;8.60;;;3.20;99.90;;;;;;4140242;28;20813;-47
2020/12/16 04:52:49;;;;;;;16.37;9.50;;;3.20;99.90;;;;;;4124216;28;20338;-47
2020/12/16 04:54:50;;;;;;;14.47;8.80;;;3.20;99.90;;;;;;4123815;28;20988;-42
2020/12/16 04:56:52;;;;;;;11.93;7.97;;;3.20;99.90;;;;;;4124781;28;20780;-46
2020/12/16 04:58:56;;;;;;;14.40;9.07;;;3.20;99.90;;;;;;4124245;28;20272;-40
2020/12/16 05:00:58;;;;;;;19.50;9.87;;;3.10;99.90;;;;;;4123684;28;20268;-44
2020/12/16 05:03:08;;;;;;;16.60;9.27;;;3.00;99.90;;;;;;4123982;28;21155;-44
2020/12/16 05:05:09;;;;;;;15.70;9.77;;;3.00;99.90;;;;;;4124387;28;20332;-43
2020/12/16 05:07:29;;;;;;;15.63;9.67;;;3.00;99.90;;;;;;4123915;28;20836;-40
2020/12/16 05:09:30;;;;;;;14.57;9.55;;;3.00;99.90;;;;;;4124523;28;20299;-43
2020/12/16 05:11:41;;;;;;;16.00;8.77;;;3.00;99.90;;;;;;4123453;28;20038;-41
2020/12/16 05:13:42;;;;;;;14.83;8.63;;;3.00;99.90;;;;;;4122897;28;20312;-46
2020/12/16 05:15:45;;;;;;;19.03;10.00;;;3.00;99.90;;;;;;4123887;28;20280;-39
2020/12/16 05:18:05;;;;;;;13.23;8.17;;;3.00;99.90;;;;;;4124873;28;20272;-38
2020/12/16 05:20:08;;;;;;;15.07;8.60;;;3.00;99.90;;;;;;4124153;28;20367;-40
2020/12/16 05:22:31;;;;;;;16.63;9.67;;;3.00;99.90;;;;;;4124141;28;20065;-48
2020/12/16 05:24:32;;;;;;;15.33;8.30;;;3.00;99.90;;;;;;4123218;28;20290;-42
2020/12/16 05:26:34;;;;;;;15.80;9.30;;;2.90;99.90;;;;;;4123465;28;20299;-41
2020/12/16 05:28:40;;;;;;;16.33;9.60;;;2.90;99.90;;;;;;4123371;28;20969;-46
2020/12/16 05:30:53;;;;;;;13.63;8.83;;;2.90;99.90;;;;;;4124075;28;20284;-38
2020/12/16 05:32:55;;;;;;;13.30;8.77;;;2.90;99.90;;;;;;4123348;28;20284;-47
2020/12/16 05:34:58;;;;;;;14.70;8.10;;;2.90;99.90;;;;;;4123435;28;20300;-48
2020/12/16 05:36:59;;;;;;;14.37;8.33;;;2.90;99.90;;;;;;4123642;28;20276;-41
2020/12/16 05:39:00;;;;;;;15.80;8.20;;;2.90;99.90;;;;;;4123652;28;20275;-43
2020/12/16 05:41:06;;;;;;;12.57;7.33;;;2.90;99.90;;;;;;4123245;28;20276;-41
2020/12/16 05:43:08;;;;;;;11.70;7.23;;;2.90;99.90;;;;;;4124384;28;20331;-42
2020/12/16 05:45:22;;;;;;;13.90;7.80;;;2.90;99.90;;;;;;4125292;28;20276;-46
2020/12/16 05:47:23;;;;;;;12.97;7.53;;;2.90;99.90;;;;;;4140400;28;20326;-45
2020/12/16 05:49:29;;;;;;;12.13;6.93;;;2.90;99.90;;;;;;4139087;28;20681;-44
2020/12/16 05:51:30;;;;;;;12.67;7.77;;;2.80;99.90;;;;;;4140281;28;20752;-43
2020/12/16 05:53:32;;;;;;;12.67;7.70;;;2.80;99.90;;;;;;4138779;28;20272;-40
2020/12/16 05:55:33;;;;;;;16.20;8.33;;;2.90;99.90;;;;;;4124278;28;20350;-43
2020/12/16 05:57:34;;;;;;;16.13;8.90;;;3.00;99.90;;;;;;4123136;28;20268;-40
2020/12/16 05:59:35;;;;;;;13.27;7.73;;;3.00;99.90;;;;;;4122954;28;20287;-42
2020/12/16 06:01:38;;;;;;;15.40;8.20;;;3.10;99.90;;;;;;4123053;28;20757;-41
2020/12/16 06:03:40;;;;;;;16.00;9.20;;;3.10;99.90;;;;;;4123918;28;21076;-42
2020/12/16 06:05:48;;;;;;;19.57;9.80;;;3.10;99.90;;;;;;4123591;28;20354;-45
2020/12/16 06:07:49;;;;;;;16.13;9.07;;;3.00;99.90;;;;;;4123344;28;20291;-45
2020/12/16 06:09:52;;;;;;;17.20;10.90;;;2.90;99.90;;;;;;4123239;28;20672;-44
2020/12/16 06:11:54;;;;;;;16.13;9.27;;;2.90;99.90;;;;;;4122914;28;20325;-41
2020/12/16 06:14:05;;;;;;;16.60;9.93;;;2.90;99.90;;;;;;4123201;28;20292;-41
2020/12/16 06:16:07;;;;;;;17.17;9.33;;;2.90;99.90;;;;;;4122353;28;20342;-47
2020/12/16 06:18:13;;;;;;;19.93;10.97;;;2.80;99.90;;;;;;4122930;28;20342;-40
2020/12/16 06:20:17;;;;;;;19.10;10.93;;;2.90;99.90;;;;;;4122133;28;20310;-40
2020/12/16 06:22:22;;;;;;;24.50;11.10;;;2.80;99.90;;;;;;4123608;28;20763;-42
2020/12/16 06:24:28;;;;;;;18.80;10.70;;;2.80;99.90;;;;;;4122372;28;20275;-45
2020/12/16 06:26:36;;;;;;;23.63;12.30;;;2.90;99.90;;;;;;4126668;28;20322;-44
2020/12/16 06:28:37;;;;;;;23.57;12.83;;;2.90;99.90;;;;;;4125793;28;20334;-40
2020/12/16 06:30:49;;;;;;;25.57;12.50;;;2.80;99.90;;;;;;4126777;28;20323;-41
2020/12/16 06:33:14;;;;;;;28.90;12.53;;;2.90;99.90;;;;;;4126573;28;20272;-40
2020/12/16 06:35:19;;;;;;;23.93;13.70;;;2.80;99.90;;;;;;4142678;28;20287;-41
2020/12/16 06:37:20;;;;;;;26.20;13.37;;;2.90;99.90;;;;;;4141508;28;20313;-42
2020/12/16 06:39:23;;;;;;;22.73;13.03;;;2.80;99.90;;;;;;4157205;28;20283;-40
2020/12/16 06:41:30;;;;;;;21.30;12.33;;;2.90;99.90;;;;;;4141986;28;20698;-42
2020/12/16 06:43:31;;;;;;;23.90;13.17;;;2.90;99.90;;;;;;4142203;28;20264;-40
2020/12/16 06:45:32;;;;;;;22.67;10.90;;;2.90;99.90;;;;;;4141403;28;20271;-41
2020/12/16 06:47:33;;;;;;;25.50;13.13;;;2.90;99.90;;;;;;4137926;28;20867;-47
2020/12/16 06:49:36;;;;;;;27.47;12.77;;;2.80;99.90;;;;;;4139669;28;20755;-41
2020/12/16 06:51:45;;;;;;;27.37;13.63;;;2.80;99.90;;;;;;4140537;28;20267;-39
2020/12/16 06:53:47;;;;;;;27.90;14.17;;;2.80;99.90;;;;;;4135598;28;20334;-44
2020/12/16 06:56:07;;;;;;;30.00;13.97;;;2.80;99.90;;;;;;4134503;28;20330;-46
2020/12/16 06:58:08;;;;;;;30.50;13.02;;;2.90;99.90;;;;;;4141767;28;20314;-37
2020/12/16 07:00:17;;;;;;;28.23;14.70;;;2.80;99.90;;;;;;4142065;28;20085;-48
2020/12/16 07:02:22;;;;;;;25.40;14.77;;;2.80;99.90;;;;;;4127750;28;20859;-48
2020/12/16 07:04:35;;;;;;;33.17;14.40;;;2.70;99.90;;;;;;4125505;28;20338;-41
2020/12/16 07:06:39;;;;;;;37.93;15.87;;;2.80;99.90;;;;;;4124577;28;20335;-41
2020/12/16 07:08:41;;;;;;;29.30;14.23;;;2.70;99.90;;;;;;4126375;28;20395;-39
2020/12/16 07:10:44;;;;;;;30.67;15.70;;;2.70;99.90;;;;;;4128182;28;20332;-48
2020/12/16 07:12:46;;;;;;;28.93;15.40;;;2.70;99.90;;;;;;4140495;28;20291;-47
2020/12/16 07:14:47;;;;;;;38.93;17.23;;;2.80;99.90;;;;;;4139028;28;20299;-50
2020/12/16 07:16:48;;;;;;;43.07;21.97;;;2.80;99.90;;;;;;4134087;28;20771;-38
2020/12/16 07:18:51;;;;;;;33.80;17.27;;;2.80;99.90;;;;;;4136813;28;20295;-40
2020/12/16 07:21:08;;;;;;;30.87;14.43;;;2.80;99.90;;;;;;4157143;28;20316;-43
2020/12/16 07:23:09;;;;;;;30.87;15.70;;;2.80;99.90;;;;;;4142277;28;20338;-52
2020/12/16 07:25:12;;;;;;;27.20;13.80;;;2.80;99.90;;;;;;4124539;28;20280;-35
2020/12/16 07:27:18;;;;;;;23.07;12.17;;;2.80;99.90;;;;;;4139101;28;20754;-54
2020/12/16 07:29:31;;;;;;;27.37;12.57;;;2.80;99.90;;;;;;4140913;28;20295;-51
2020/12/16 07:31:32;;;;;;;23.77;13.00;;;2.80;99.90;;;;;;4134786;28;20306;-39
2020/12/16 07:33:35;;;;;;;23.43;13.03;;;2.80;99.90;;;;;;4124329;28;20339;-43
2020/12/16 07:35:48;;;;;;;26.27;13.17;;;2.80;99.90;;;;;;4125639;28;20296;-40
2020/12/16 07:37:51;;;;;;;30.63;15.53;;;2.80;99.90;;;;;;4154710;28;20754;-36
2020/12/16 07:39:54;;;;;;;34.10;14.93;;;2.80;99.90;;;;;;4140946;28;20394;-36
2020/12/16 07:41:57;;;;;;;35.13;16.30;;;2.80;99.90;;;;;;4140677;28;20365;-44
2020/12/16 07:43:59;;;;;;;43.30;21.07;;;2.80;99.90;;;;;;4140938;28;20279;-35
2020/12/16 07:46:06;;;;;;;47.27;24.13;;;2.80;99.90;;;;;;4138536;28;20383;-44
2020/12/16 07:48:07;;;;;;;35.73;19.40;;;2.80;99.90;;;;;;4131772;28;20683;-45
2020/12/16 07:50:11;;;;;;;26.30;14.87;;;2.80;99.90;;;;;;4126118;28;20264;-35
2020/12/16 07:52:12;;;;;;;26.50;12.87;;;2.80;99.90;;;;;;4141906;28;20267;-47
2020/12/16 07:54:21;;;;;;;34.23;16.67;;;2.80;99.90;;;;;;4131168;28;20866;-38
2020/12/16 07:56:22;;;;;;;27.17;16.27;;;2.90;99.90;;;;;;4134084;28;20279;-44
2020/12/16 07:58:23;;;;;;;29.03;14.53;;;2.80;99.90;;;;;;4138519;28;20717;-35
2020/12/16 08:00:25;;;;;;;24.50;13.50;;;2.80;99.90;;;;;;4140340;28;20299;-49
2020/12/16 08:02:26;;;;;;;28.43;14.87;;;2.80;99.90;;;;;;4138817;28;20353;-50
2020/12/16 08:04:27;;;;;;;27.37;13.30;;;2.80;99.90;;;;;;4141086;28;20382;-44
2020/12/16 08:06:28;;;;;;;24.93;13.30;;;2.90;99.90;;;;;;4140483;28;21463;-38
2020/12/16 08:08:30;;;;;;;19.63;9.73;;;2.90;99.90;;;;;;4137791;28;20806;-45
2020/12/16 08:10:31;;;;;;;15.23;9.13;;;2.90;99.90;;;;;;4139878;28;20279;-38
2020/12/16 08:12:36;;;;;;;13.20;7.67;;;2.90;99.90;;;;;;4139435;28;20275;-39
2020/12/16 08:14:39;;;;;;;13.67;7.93;;;2.90;99.90;;;;;;4131268;28;20295;-40
2020/12/16 08:16:41;;;;;;;13.33;7.70;;;2.90;99.90;;;;;;4131953;28;20291;-35
2020/12/16 08:18:46;;;;;;;13.87;7.80;;;3.00;99.90;;;;;;4139321;28;20414;-37
2020/12/16 08:20:47;;;;;;;14.93;8.03;;;2.90;99.90;;;;;;4140046;28;20325;-40
2020/12/16 08:22:55;;;;;;;17.53;8.40;;;2.90;99.90;;;;;;4140366;28;20711;-39
2020/12/16 08:25:08;;;;;;;16.90;9.47;;;2.90;99.90;;;;;;4139471;28;20361;-41
2020/12/16 08:27:09;;;;;;;13.93;7.70;;;2.90;99.90;;;;;;4139999;28;20345;-48
2020/12/16 08:29:10;;;;;;;15.30;7.90;;;3.00;99.90;;;;;;4139658;28;20345;-38
2020/12/16 08:31:13;;;;;;;13.63;7.70;;;3.00;99.90;;;;;;4125546;28;20370;-42
2020/12/16 08:33:18;;;;;;;15.30;8.67;;;3.00;99.90;;;;;;4135936;28;20291;-37
2020/12/16 08:35:21;;;;;;;16.87;8.90;;;3.00;99.90;;;;;;4124567;28;20411;-39
2020/12/16 08:37:22;;;;;;;15.00;7.63;;;3.10;99.90;;;;;;4124424;28;20268;-46
2020/12/16 08:39:25;;;;;;;14.53;7.80;;;3.10;99.90;;;;;;4125061;28;20772;-50
2020/12/16 08:41:29;;;;;;;12.37;7.47;;;3.10;99.90;;;;;;4137492;28;20283;-51
2020/12/16 08:43:37;;;;;;;10.50;6.47;;;3.00;99.90;;;;;;4140371;28;20271;-49
2020/12/16 08:45:38;;;;;;;14.00;7.10;;;3.00;99.90;;;;;;4124324;28;20284;-44
2020/12/16 08:47:39;;;;;;;11.03;6.83;;;3.00;99.90;;;;;;4124912;28;20385;-36
2020/12/16 08:49:40;;;;;;;13.33;6.80;;;3.00;99.90;;;;;;4126060;28;20335;-45
2020/12/16 08:51:44;;;;;;;12.97;7.10;;;3.00;99.90;;;;;;4123607;28;20334;-36
2020/12/16 08:53:58;;;;;;;13.20;7.70;;;3.00;99.90;;;;;;4131113;28;20279;-43
2020/12/16 08:55:59;;;;;;;13.63;8.03;;;3.10;99.90;;;;;;4139241;28;20692;-35
2020/12/16 08:58:00;;;;;;;13.13;6.90;;;3.10;99.90;;;;;;4140479;28;20862;-38
2020/12/16 09:00:07;;;;;;;14.80;7.23;;;3.10;99.90;;;;;;4136192;28;20279;-37
2020/12/16 09:02:09;;;;;;;12.93;6.37;;;3.10;99.90;;;;;;4139831;28;20406;-40
2020/12/16 09:04:11;;;;;;;14.57;7.37;;;3.10;99.90;;;;;;4138532;28;21084;-48
2020/12/16 09:06:15;;;;;;;12.77;6.87;;;3.10;99.90;;;;;;4140392;28;20361;-42
2020/12/16 09:08:16;;;;;;;13.47;6.70;;;3.00;99.90;;;;;;4132039;28;20337;-36
2020/12/16 09:10:17;;;;;;;15.07;7.77;;;3.10;99.90;;;;;;4135722;28;20314;-34
2020/12/16 09:12:21;;;;;;;14.20;8.30;;;3.10;99.90;;;;;;4138026;28;20706;-39
2020/12/16 09:14:23;;;;;;;15.07;7.33;;;3.20;99.90;;;;;;4140424;28;20283;-37
2020/12/16 09:16:26;;;;;;;15.40;6.93;;;3.30;99.90;;;;;;4137472;28;20357;-37
2020/12/16 09:18:28;;;;;;;12.37;7.07;;;3.40;99.90;;;;;;4139591;28;20382;-50
2020/12/16 09:20:33;;;;;;;10.60;5.97;;;3.50;99.90;;;;;;4132210;28;20307;-57
2020/12/16 09:22:34;;;;;;;12.23;7.40;;;3.50;99.90;;;;;;4123098;28;20390;-38
2020/12/16 09:24:36;;;;;;;11.33;6.77;;;3.50;99.90;;;;;;4125933;28;20283;-34
2020/12/16 09:26:42;;;;;;;12.30;7.40;;;3.60;99.90;;;;;;4138648;28;20345;-35
2020/12/16 09:28:43;;;;;;;12.37;6.83;;;3.60;99.90;;;;;;4129414;28;20858;-34
2020/12/16 09:30:45;;;;;;;13.07;7.20;;;3.60;99.90;;;;;;4139167;28;20267;-36
2020/12/16 09:32:46;;;;;;;15.50;7.37;;;3.70;99.90;;;;;;4139018;28;20325;-36
2020/12/16 09:34:49;;;;;;;13.60;7.90;;;3.70;99.90;;;;;;4133288;28;20304;-36
2020/12/16 09:36:50;;;;;;;11.13;6.63;;;3.70;99.90;;;;;;4124146;28;20278;-35
2020/12/16 09:39:03;;;;;;;13.87;6.40;;;3.70;99.90;;;;;;4122936;28;21141;-37
2020/12/16 09:41:04;;;;;;;11.03;6.40;;;3.70;99.90;;;;;;4126895;28;20291;-42
2020/12/16 09:43:08;;;;;;;12.70;6.33;;;3.70;99.90;;;;;;4138216;28;20719;-35
2020/12/16 09:45:15;;;;;;;14.30;7.10;;;3.60;99.90;;;;;;4125471;28;20732;-38
2020/12/16 09:47:21;;;;;;;13.70;8.07;;;3.60;99.90;;;;;;4151388;28;20327;-35
2020/12/16 09:49:22;;;;;;;14.30;6.73;;;3.60;99.90;;;;;;4129343;28;20284;-36
2020/12/16 09:51:24;;;;;;;12.10;7.20;;;3.60;99.90;;;;;;4132546;28;21137;-36
2020/12/16 09:53:25;;;;;;;12.80;7.73;;;3.60;99.90;;;;;;4137144;28;20323;-43
2020/12/16 09:55:27;;;;;;;14.40;7.60;;;3.70;99.90;;;;;;4139038;28;20283;-40
2020/12/16 09:57:28;;;;;;;13.97;7.70;;;3.70;99.90;;;;;;4139224;28;20291;-43
2020/12/16 09:59:29;;;;;;;15.87;8.23;;;3.70;99.90;;;;;;4141007;28;20341;-38
2020/12/16 10:01:30;;;;;;;16.67;8.17;;;3.70;99.90;;;;;;4147582;28;20275;-34
2020/12/16 10:03:32;;;;;;;16.10;8.87;;;3.60;99.90;;;;;;4130790;28;20286;-35
2020/12/16 10:05:34;;;;;;;17.00;8.87;;;3.70;99.90;;;;;;4135461;28;20793;-45
2020/12/16 10:07:35;;;;;;;15.67;7.83;;;3.60;99.90;;;;;;4134472;28;21398;-43
2020/12/16 10:09:39;;;;;;;14.53;7.90;;;3.70;99.90;;;;;;4127775;28;20330;-39
2020/12/16 10:11:40;;;;;;;16.07;8.57;;;3.70;99.90;;;;;;4130731;28;20310;-38
2020/12/16 10:13:43;;;;;;;17.73;9.27;;;3.70;99.90;;;;;;4137629;28;20267;-39
2020/12/16 10:15:44;;;;;;;16.50;9.13;;;3.80;99.90;;;;;;4134861;28;20641;-36
2020/12/16 10:17:45;;;;;;;21.97;8.97;;;3.80;99.90;;;;;;4137300;28;20279;-43
2020/12/16 10:19:47;;;;;;;16.33;9.60;;;3.90;99.90;;;;;;4135730;28;20286;-38
2020/12/16 10:21:49;;;;;;;21.87;9.30;;;3.90;99.90;;;;;;4137092;28;20284;-40
2020/12/16 10:23:50;;;;;;;17.20;9.20;;;3.90;99.90;;;;;;4130990;28;20295;-42
2020/12/16 10:25:51;;;;;;;17.20;9.30;;;3.80;99.90;;;;;;4130525;28;20355;-42
2020/12/16 10:27:53;;;;;;;18.77;8.97;;;3.80;99.90;;;;;;4137859;28;20322;-37
2020/12/16 10:29:57;;;;;;;22.63;9.40;;;3.90;99.90;;;;;;4133505;28;20338;-42
2020/12/16 10:31:59;;;;;;;17.57;9.53;;;3.90;99.90;;;;;;4132722;28;20321;-43
2020/12/16 10:34:00;;;;;;;20.77;10.53;;;3.90;99.90;;;;;;4139119;28;20324;-40
2020/12/16 10:36:01;;;;;;;15.93;9.90;;;4.00;99.90;;;;;;4138089;28;20687;-35
2020/12/16 10:38:02;;;;;;;20.33;10.30;;;4.00;99.90;;;;;;4138909;28;20328;-42